Time;durP1;ratioP1;P1;durP2;ratioP2;P2;SDS_P1;SDS_P2;PMS_P1;PMS_P2;Temp;Humidity;BMP_temperature;BMP_pressure;BME280_temperature;BME280_humidity;BME280_pressure;Samples;Min_cycle;Max_cycle;Signal;HPM_P1;HPM_P2
2021/08/13 00:01:21;;;;;;;12.07;8.95;;;;;;;19.82;62.68;101916.91;10536260;28;20082;-82
2021/08/13 00:06:21;;;;;;;16.63;8.77;;;;;;;19.80;62.62;101924.53;10514660;28;20544;-82
2021/08/13 00:11:22;;;;;;;13.20;8.43;;;;;;;19.76;62.87;101920.59;10533715;28;20115;-82
2021/08/13 00:16:23;;;;;;;8.77;6.90;;;;;;;19.42;62.49;101888.03;10533228;28;20144;-82
2021/08/13 00:21:24;;;;;;;9.45;6.72;;;;;;;19.68;63.21;101932.75;10532331;28;20115;-82
2021/08/13 00:26:24;;;;;;;9.65;6.53;;;;;;;19.67;63.10;101937.41;10532450;28;20040;-82
2021/08/13 00:31:25;;;;;;;13.02;6.10;;;;;;;19.63;62.71;101944.41;10534934;28;20061;-81
2021/08/13 00:36:25;;;;;;;11.27;7.38;;;;;;;19.59;62.66;101943.22;10543216;28;20100;-82
2021/08/13 00:41:26;;;;;;;13.38;7.25;;;;;;;19.46;63.99;101948.84;10524127;28;20036;-82
2021/08/13 00:46:26;;;;;;;7.78;6.97;;;;;;;19.37;63.83;101944.75;10542784;28;20507;-82
2021/08/13 00:51:27;;;;;;;7.85;6.72;;;;;;;19.04;65.18;101927.59;10524407;28;20042;-82
2021/08/13 00:56:28;;;;;;;10.48;7.90;;;;;;;19.31;64.48;101956.69;10507276;28;20028;-82
2021/08/13 01:01:29;;;;;;;10.88;6.55;;;;;;;19.29;65.07;101951.41;10542494;28;20055;-82
2021/08/13 01:06:30;;;;;;;9.80;6.93;;;;;;;19.27;65.11;101961.75;10542660;28;20047;-82
2021/08/13 01:12:00;;;;;;;6.15;5.45;;;;;;;19.23;63.59;101964.13;10541838;28;20388;-82
2021/08/13 01:17:02;;;;;;;8.63;4.65;;;;;;;19.21;64.65;101957.22;10523425;28;20497;-82
2021/08/13 01:22:05;;;;;;;12.00;5.18;;;;;;;19.19;64.66;101951.09;10523630;28;20115;-82
2021/08/13 01:27:08;;;;;;;6.75;4.70;;;;;;;18.92;64.83;101913.00;10506686;28;20043;-82
2021/08/13 01:32:17;;;;;;;8.10;4.97;;;;;;;19.25;64.71;101970.25;10506755;28;20368;-82
2021/08/13 01:37:18;;;;;;;7.53;5.30;;;;;;;19.21;64.00;101958.06;10540674;28;20029;-81
2021/08/13 01:42:18;;;;;;;5.63;4.30;;;;;;;19.22;64.42;101965.22;10521644;28;20036;-82
2021/08/13 01:47:19;;;;;;;5.35;4.45;;;;;;;19.23;65.44;101966.88;10489313;28;20032;-82
2021/08/13 01:52:20;;;;;;;6.95;4.35;;;;;;;19.27;65.34;101951.66;10514966;28;20092;-82
2021/08/13 01:57:22;;;;;;;5.22;3.70;;;;;;;19.24;65.30;101973.22;10495250;28;20042;-82
2021/08/13 02:02:23;;;;;;;7.78;5.70;;;;;;;18.99;65.36;101948.59;10495337;28;20172;-82
2021/08/13 02:07:23;;;;;;;6.82;4.45;;;;;;;19.19;65.77;101970.31;10511336;28;20051;-82
2021/08/13 02:12:24;;;;;;;5.97;5.32;;;;;;;18.94;65.52;101929.22;10530132;28;20043;-82
2021/08/13 02:17:24;;;;;;;8.13;5.20;;;;;;;19.02;65.64;101959.13;10514167;28;20082;-82
2021/08/13 02:22:25;;;;;;;6.05;5.53;;;;;;;18.86;66.01;101932.25;10532649;28;20081;-82
2021/08/13 02:27:26;;;;;;;7.55;6.40;;;;;;;18.94;66.23;101953.91;10517580;28;20345;-81
2021/08/13 02:32:27;;;;;;;7.18;4.88;;;;;;;18.84;66.41;101961.84;10521067;28;20040;-82
2021/08/13 02:38:05;;;;;;;8.93;6.03;;;;;;;18.85;65.57;101958.03;10521169;28;20392;-82
2021/08/13 02:43:07;;;;;;;13.43;6.10;;;;;;;18.69;66.58;101946.53;10520690;28;20048;-82
2021/08/13 02:48:08;;;;;;;6.32;4.75;;;;;;;18.45;66.77;101898.03;10520943;28;20055;-81
2021/08/13 02:53:14;;;;;;;9.13;5.75;;;;;;;18.45;66.11;101889.81;10520488;28;20060;-82
2021/08/13 02:58:16;;;;;;;3.57;3.27;;;;;;;18.88;66.90;101971.28;10520627;28;20132;-82
2021/08/13 03:03:17;;;;;;;9.25;4.90;;;;;;;18.72;66.67;101959.81;10520599;28;20115;-82
2021/08/13 03:08:18;;;;;;;7.57;5.88;;;;;;;18.68;67.34;101966.81;10503824;28;20554;-82
2021/08/13 03:13:19;;;;;;;9.25;5.50;;;;;;;18.79;67.10;101981.72;10519643;28;20043;-82
2021/08/13 03:18:20;;;;;;;7.65;5.05;;;;;;;18.80;66.86;101970.53;10525838;28;20043;-81
2021/08/13 03:23:20;;;;;;;5.28;4.50;;;;;;;18.73;67.24;101956.03;10545988;28;20036;-81
2021/08/13 03:28:21;;;;;;;9.18;5.75;;;;;;;18.77;67.71;101953.69;10545922;28;20028;-81
2021/08/13 03:33:21;;;;;;;10.57;6.00;;;;;;;18.73;67.79;101946.94;10545721;28;20091;-82
2021/08/13 03:38:22;;;;;;;8.35;6.10;;;;;;;18.78;67.53;101941.63;10510629;28;20040;-82
2021/08/13 03:43:22;;;;;;;7.55;6.05;;;;;;;18.77;67.71;101940.78;10544382;28;20067;-81
2021/08/13 03:48:23;;;;;;;11.20;5.65;;;;;;;18.74;67.66;101945.91;10545982;28;20412;-82
2021/08/13 03:53:23;;;;;;;5.53;5.13;;;;;;;18.73;68.00;101935.97;10545644;28;20119;-81
2021/08/13 03:58:23;;;;;;;7.20;5.85;;;;;;;18.56;68.24;101919.22;10510071;28;20064;-82
2021/08/13 04:03:24;;;;;;;14.77;7.53;;;;;;;18.72;68.66;101946.09;10526479;28;20036;-82
2021/08/13 04:08:24;;;;;;;15.50;5.45;;;;;;;18.34;67.62;101896.84;10544435;28;20040;-82
2021/08/13 04:13:25;;;;;;;18.23;7.45;;;;;;;18.72;68.68;101957.09;10522918;28;20048;-82
2021/08/13 04:18:25;;;;;;;19.27;6.45;;;;;;;18.73;68.60;101961.53;10509176;28;20056;-82
2021/08/13 04:23:25;;;;;;;11.20;6.93;;;;;;;18.75;68.86;101962.13;10544201;28;20464;-82
2021/08/13 04:28:26;;;;;;;10.15;7.32;;;;;;;18.71;68.88;101960.88;10543052;28;20036;-81
2021/08/13 04:33:26;;;;;;;10.93;7.57;;;;;;;18.66;68.72;101938.75;10524500;28;20115;-81
2021/08/13 04:38:27;;;;;;;8.52;6.47;;;;;;;18.64;67.84;101942.81;10508221;28;20103;-82
2021/08/13 04:43:27;;;;;;;9.88;8.40;;;;;;;18.57;69.32;101951.94;10523956;28;20035;-82
2021/08/13 04:48:27;;;;;;;10.63;8.90;;;;;;;18.50;69.75;101939.31;10524653;28;20054;-82
2021/08/13 04:53:28;;;;;;;16.30;7.90;;;;;;;18.71;70.01;101957.28;10510400;28;20071;-80
2021/08/13 04:58:28;;;;;;;14.65;8.48;;;;;;;18.72;70.08;101961.72;10523962;28;20063;-80
2021/08/13 05:03:30;;;;;;;20.88;10.65;;;;;;;18.90;69.38;101960.94;10524007;28;20501;-81
2021/08/13 05:08:30;;;;;;;15.88;8.88;;;;;;;19.16;68.81;101968.88;10541505;28;20057;-79
2021/08/13 05:13:31;;;;;;;16.30;8.07;;;;;;;19.31;68.63;101968.50;10523085;28;20469;-80
2021/08/13 05:18:34;;;;;;;12.02;7.78;;;;;;;19.11;68.44;101922.03;10523350;28;20144;-79
2021/08/13 05:23:34;;;;;;;11.02;8.77;;;;;;;19.47;68.14;101954.13;10541679;28;20032;-80
2021/08/13 05:28:35;;;;;;;18.65;8.15;;;;;;;19.59;68.20;101965.19;10522956;28;20027;-80
2021/08/13 05:33:35;;;;;;;9.20;8.27;;;;;;;19.37;67.92;101918.13;10540443;28;20044;-80
2021/08/13 05:38:36;;;;;;;10.98;7.88;;;;;;;19.74;67.87;101979.38;10521690;28;20459;-80
2021/08/13 05:43:36;;;;;;;21.58;8.30;;;;;;;19.83;67.84;101974.38;10521570;28;20032;-79
2021/08/13 05:48:36;;;;;;;9.80;7.07;;;;;;;19.92;68.27;101991.41;10540178;28;20024;-80
2021/08/13 05:53:37;;;;;;;13.18;8.50;;;;;;;20.10;68.17;101980.34;10539899;28;20120;-80
2021/08/13 05:58:37;;;;;;;5.65;5.07;;;;;;;20.23;68.00;101997.69;10539914;28;20032;-80
2021/08/13 06:03:38;;;;;;;16.95;7.38;;;;;;;20.41;67.65;101997.63;10540099;28;20133;-80
2021/08/13 06:08:38;;;;;;;15.15;7.32;;;;;;;20.30;67.70;101973.69;10539660;28;20072;-80
2021/08/13 06:13:39;;;;;;;15.10;5.63;;;;;;;20.53;67.84;102000.44;10520999;28;20043;-80
2021/08/13 06:18:39;;;;;;;8.57;5.03;;;;;;;20.30;67.46;101948.94;10521576;28;20130;-80
2021/08/13 06:23:40;;;;;;;8.35;5.85;;;;;;;20.94;67.18;102010.50;10539132;28;20391;-80
2021/08/13 06:28:40;;;;;;;5.05;4.65;;;;;;;20.92;66.45;102020.91;10539158;28;20115;-80
2021/08/13 06:33:40;;;;;;;6.97;3.80;;;;;;;21.07;65.95;102028.72;10520892;28;20156;-80
2021/08/13 06:38:41;;;;;;;8.60;3.55;;;;;;;21.25;64.81;102023.06;10537626;28;20032;-79
2021/08/13 06:43:41;;;;;;;9.98;5.85;;;;;;;21.74;63.64;102033.78;10492816;28;20104;-79
2021/08/13 06:48:42;;;;;;;3.67;3.35;;;;;;;21.57;64.46;102036.47;10528649;28;20089;-79
2021/08/13 06:53:43;;;;;;;5.07;4.53;;;;;;;21.45;64.09;102019.94;10535365;28;20047;-79
2021/08/13 06:58:44;;;;;;;9.75;4.88;;;;;;;21.77;63.15;102047.06;10536981;28;20028;-80
2021/08/13 07:03:44;;;;;;;6.00;4.55;;;;;;;22.37;62.11;102046.59;10536860;28;20499;-80
2021/08/13 07:08:45;;;;;;;3.92;3.38;;;;;;;23.34;59.67;102028.81;10518884;28;20047;-79
2021/08/13 07:13:45;;;;;;;3.65;3.30;;;;;;;24.42;57.26;102035.63;10517839;28;20055;-80
2021/08/13 07:18:45;;;;;;;3.83;3.50;;;;;;;25.05;54.79;102031.97;10535880;28;20052;-79
2021/08/13 07:23:46;;;;;;;3.90;3.60;;;;;;;25.80;54.78;102033.72;10536285;28;20032;-79
2021/08/13 07:28:46;;;;;;;4.13;2.88;;;;;;;25.81;53.79;102054.84;10517672;28;20043;-79
2021/08/13 07:33:47;;;;;;;4.55;3.05;;;;;;;25.51;51.96;102073.81;10517589;28;20059;-79
2021/08/13 07:38:47;;;;;;;3.15;2.83;;;;;;;25.93;52.59;102072.91;10537468;28;20126;-79
2021/08/13 07:43:47;;;;;;;3.08;2.60;;;;;;;25.37;53.09;102069.06;10536319;28;20139;-79
2021/08/13 07:48:48;;;;;;;10.32;4.30;;;;;;;25.77;53.01;102048.97;10536153;28;20122;-79
2021/08/13 07:53:48;;;;;;;5.18;2.85;;;;;;;26.15;53.93;102069.94;10538339;28;20061;-79
2021/08/13 07:58:49;;;;;;;4.88;3.40;;;;;;;25.37;53.65;102058.78;10520846;28;20124;-79
2021/08/13 08:03:49;;;;;;;8.77;5.05;;;;;;;25.54;53.28;102066.09;10537875;28;20086;-79
2021/08/13 08:08:49;;;;;;;4.80;3.45;;;;;;;25.84;51.70;102069.00;10540147;28;20505;-79
2021/08/13 08:13:50;;;;;;;6.75;3.92;;;;;;;26.27;51.78;102072.47;10539194;28;20036;-79
2021/08/13 08:18:50;;;;;;;4.05;3.13;;;;;;;26.33;51.34;102084.41;10521562;28;20510;-79
2021/08/13 08:23:51;;;;;;;4.72;3.30;;;;;;;26.07;53.38;102098.25;10539708;28;20054;-79
2021/08/13 08:28:52;;;;;;;3.55;2.78;;;;;;;26.44;50.12;102081.38;10539394;28;20039;-79
2021/08/13 08:33:52;;;;;;;4.43;3.28;;;;;;;26.60;50.55;102104.47;10521509;28;20040;-79
2021/08/13 08:38:52;;;;;;;4.60;3.05;;;;;;;26.71;49.41;102096.13;10539392;28;20097;-79
2021/08/13 08:43:53;;;;;;;2.13;1.98;;;;;;;27.52;48.33;102107.19;10537883;28;20541;-78
2021/08/13 08:48:55;;;;;;;3.58;2.65;;;;;;;27.66;49.45;102112.97;10539483;28;20036;-79
2021/08/13 08:53:56;;;;;;;2.80;2.55;;;;;;;27.48;46.38;102147.84;10520386;28;20077;-79
2021/08/13 08:58:57;;;;;;;3.65;2.90;;;;;;;26.42;46.67;102139.16;10520424;28;20032;-79
2021/08/13 09:03:57;;;;;;;5.97;3.00;;;;;;;26.31;47.28;102098.56;10520195;28;20086;-79
2021/08/13 09:08:58;;;;;;;5.25;3.25;;;;;;;27.01;46.20;102142.56;10519713;28;20043;-79
2021/08/13 09:14:03;;;;;;;8.60;3.72;;;;;;;27.07;46.25;102145.06;10536640;28;20505;-79
2021/08/13 09:19:05;;;;;;;6.30;2.58;;;;;;;26.35;45.74;102130.22;10519413;28;20090;-79
2021/08/13 09:24:09;;;;;;;6.70;3.42;;;;;;;26.90;45.85;102130.63;10536611;28;20040;-79
2021/08/13 09:29:10;;;;;;;7.93;3.08;;;;;;;27.76;49.45;102148.28;10536991;28;20036;-79
2021/08/13 09:34:13;;;;;;;5.38;2.90;;;;;;;26.61;44.42;102027.50;10540403;28;20044;-79
2021/08/13 09:39:13;;;;;;;6.18;3.03;;;;;;;27.71;44.17;102165.84;10540244;28;20040;-79
2021/08/13 09:44:27;;;;;;;10.25;2.88;;;;;;;28.47;45.00;102161.13;10539976;28;20040;-79
2021/08/13 09:49:28;;;;;;;7.93;3.17;;;;;;;28.76;43.51;102179.91;10505779;28;20032;-79
2021/08/13 09:54:29;;;;;;;8.30;3.70;;;;;;;29.08;42.08;102171.03;10522094;28;20035;-79
2021/08/13 09:59:29;;;;;;;4.38;2.38;;;;;;;29.70;42.68;102182.44;10539609;28;20101;-79
2021/08/13 10:04:33;;;;;;;12.35;4.15;;;;;;;30.20;42.65;102169.88;10539525;28;20047;-79
2021/08/13 10:09:33;;;;;;;3.00;2.80;;;;;;;30.14;39.63;102176.63;10521177;28;20490;-78
2021/08/13 10:14:41;;;;;;;7.40;3.70;;;;;;;30.83;39.56;102182.69;10538634;28;20048;-78
2021/08/13 10:19:46;;;;;;;7.68;4.15;;;;;;;30.46;39.68;102169.50;10521622;28;20086;-79
2021/08/13 10:24:47;;;;;;;4.07;3.55;;;;;;;30.13;39.46;102178.56;10520595;28;20530;-79
2021/08/13 10:29:48;;;;;;;2.33;2.13;;;;;;;30.29;38.50;102178.41;10538403;28;20047;-79
2021/08/13 10:34:48;;;;;;;14.13;3.88;;;;;;;29.75;39.86;102172.06;10539038;28;20044;-79
2021/08/13 10:39:48;;;;;;;7.68;2.63;;;;;;;29.43;40.43;102176.28;10503837;28;20071;-79
2021/08/13 10:44:52;;;;;;;6.43;3.10;;;;;;;28.68;41.25;102181.34;10537869;28;20032;-79
2021/08/13 10:49:52;;;;;;;12.32;2.80;;;;;;;28.42;41.98;102178.69;10504102;28;20031;-79
2021/08/13 10:54:52;;;;;;;7.38;2.83;;;;;;;28.11;40.46;102185.50;10503474;28;20043;-79
2021/08/13 10:59:53;;;;;;;7.47;3.08;;;;;;;27.89;44.69;102183.94;10538596;28;20063;-79
2021/08/13 11:04:54;;;;;;;2.83;2.55;;;;;;;28.08;40.66;102147.94;10538076;28;20140;-79
2021/08/13 11:09:54;;;;;;;3.08;2.13;;;;;;;27.84;40.68;102203.44;10520103;28;20036;-79
2021/08/13 11:14:55;;;;;;;4.38;2.97;;;;;;;27.77;41.08;102184.25;10537329;28;20439;-79
2021/08/13 11:19:57;;;;;;;5.88;3.20;;;;;;;28.07;43.20;102196.38;10502789;28;20457;-79
2021/08/13 11:24:57;;;;;;;6.15;2.88;;;;;;;27.72;43.06;102138.84;10503414;28;20043;-78
2021/08/13 11:29:58;;;;;;;6.05;2.83;;;;;;;28.82;43.55;102168.44;10519860;28;20040;-78
2021/08/13 11:35:05;;;;;;;9.80;2.25;;;;;;;28.48;39.57;102171.97;10519452;28;20036;-79
2021/08/13 11:40:12;;;;;;;10.23;3.20;;;;;;;28.31;42.23;102184.59;10526219;28;20033;-79
2021/08/13 11:45:12;;;;;;;8.82;2.08;;;;;;;27.71;41.82;102187.28;10526635;28;20063;-79
2021/08/13 11:50:13;;;;;;;8.07;3.75;;;;;;;27.90;41.30;102191.16;10526693;28;20114;-79
2021/08/13 11:55:24;;;;;;;13.93;5.18;;;;;;;27.59;43.92;102141.13;10526506;28;20039;-79
2021/08/13 12:00:29;;;;;;;8.25;3.90;;;;;;;27.92;43.29;102204.78;10526686;28;20569;-79
2021/08/13 12:05:34;;;;;;;7.30;2.75;;;;;;;28.32;40.58;102214.94;10526255;28;20024;-78
2021/08/13 12:10:35;;;;;;;7.05;3.60;;;;;;;27.52;43.88;102145.31;10543239;28;20043;-79
2021/08/13 12:15:37;;;;;;;5.70;3.15;;;;;;;27.34;44.04;102182.91;10526011;28;20035;-79
2021/08/13 12:20:38;;;;;;;4.80;3.10;;;;;;;27.50;42.62;102195.66;10543385;28;20104;-79
2021/08/13 12:25:41;;;;;;;9.50;4.18;;;;;;;27.60;42.21;102189.28;10525589;28;20028;-79
2021/08/13 12:30:42;;;;;;;9.68;2.92;;;;;;;27.96;44.16;102205.91;10525540;28;20040;-79
2021/08/13 12:35:44;;;;;;;10.05;3.90;;;;;;;27.52;43.64;102207.34;10542795;28;20040;-79
2021/08/13 12:40:50;;;;;;;7.75;4.13;;;;;;;26.95;43.36;102193.72;10524150;28;20035;-79
2021/08/13 12:45:52;;;;;;;7.20;3.58;;;;;;;26.59;44.87;102205.59;10524283;28;20039;-79
2021/08/13 12:51:00;;;;;;;6.47;3.25;;;;;;;26.87;45.70;102207.06;10507161;28;20039;-79
2021/08/13 12:56:00;;;;;;;10.23;3.80;;;;;;;26.80;47.23;102203.72;10542279;28;20380;-79
2021/08/13 13:01:30;;;;;;;16.33;4.50;;;;;;;27.24;45.24;102205.16;10541848;28;20040;-79
2021/08/13 13:06:31;;;;;;;10.27;3.78;;;;;;;27.28;43.30;102220.16;10541496;28;20044;-79
2021/08/13 13:11:32;;;;;;;9.82;3.72;;;;;;;27.18;43.44;102211.81;10540953;28;20043;-79
2021/08/13 13:16:33;;;;;;;9.45;3.92;;;;;;;27.15;43.78;102204.03;10541208;28;20140;-79
2021/08/13 13:21:34;;;;;;;11.95;3.47;;;;;;;26.48;45.74;102208.59;10506578;28;20031;-79
2021/08/13 13:26:34;;;;;;;14.60;3.83;;;;;;;26.53;43.18;102217.81;10541105;28;20118;-79
2021/08/13 13:31:41;;;;;;;4.13;2.67;;;;;;;26.10;46.44;102228.19;10541004;28;20398;-79
2021/08/13 13:36:41;;;;;;;7.43;3.42;;;;;;;26.30;47.50;102213.53;10540468;28;20035;-79
2021/08/13 13:41:42;;;;;;;8.00;4.28;;;;;;;26.17;49.51;102214.88;10539602;28;20075;-79
2021/08/13 13:46:42;;;;;;;8.50;3.53;;;;;;;26.50;46.35;102229.47;10540115;28;20058;-79
2021/08/13 13:51:42;;;;;;;17.17;4.65;;;;;;;26.93;48.65;102218.16;10540225;28;20040;-79
2021/08/13 13:56:43;;;;;;;13.77;3.95;;;;;;;26.81;45.72;102173.97;10539847;28;20024;-79
2021/08/13 14:01:43;;;;;;;11.52;3.92;;;;;;;27.08;46.50;102202.34;10538653;28;20123;-79
2021/08/13 14:06:44;;;;;;;15.05;3.33;;;;;;;27.43;45.01;102202.66;10521304;28;20039;-79
2021/08/13 14:11:44;;;;;;;16.87;4.57;;;;;;;27.51;45.20;102208.47;10538947;28;20380;-79
2021/08/13 14:16:45;;;;;;;4.95;3.45;;;;;;;27.31;45.57;102223.25;10539252;28;20293;-79
2021/08/13 14:21:45;;;;;;;9.10;3.35;;;;;;;27.11;45.01;102215.69;10539126;28;20069;-79
2021/08/13 14:26:45;;;;;;;7.05;2.85;;;;;;;26.47;48.10;102206.94;10539185;28;20411;-79
2021/08/13 14:31:46;;;;;;;8.77;4.10;;;;;;;26.26;46.22;102206.88;10539003;28;20605;-79
2021/08/13 14:36:46;;;;;;;15.27;4.97;;;;;;;26.03;48.73;102205.34;10520656;28;20123;-79
2021/08/13 14:41:47;;;;;;;3.10;2.85;;;;;;;25.96;47.08;102211.16;10537938;28;20082;-79
2021/08/13 14:46:47;;;;;;;9.23;4.18;;;;;;;25.06;48.82;102144.47;10520317;28;20127;-79
2021/08/13 14:51:48;;;;;;;11.73;4.32;;;;;;;25.24;50.15;102189.56;10538416;28;20036;-79
2021/08/13 14:56:48;;;;;;;8.63;4.22;;;;;;;25.18;49.40;102205.31;10537961;28;20119;-79
2021/08/13 15:01:49;;;;;;;6.97;2.20;;;;;;;24.95;48.77;102164.91;10538391;28;20043;-79
2021/08/13 15:06:50;;;;;;;12.80;3.15;;;;;;;25.30;49.39;102182.94;10503508;28;20487;-79
2021/08/13 15:11:50;;;;;;;7.50;3.67;;;;;;;25.37;50.02;102205.75;10540052;28;20036;-79
2021/08/13 15:16:50;;;;;;;7.45;3.95;;;;;;;25.03;46.57;102146.94;10528374;28;20486;-79
2021/08/13 15:21:51;;;;;;;7.07;2.83;;;;;;;24.87;46.20;102206.94;10527845;28;20032;-79
2021/08/13 15:26:52;;;;;;;8.77;3.45;;;;;;;24.33;46.22;102149.56;10511203;28;20519;-79
2021/08/13 15:31:52;;;;;;;10.27;4.20;;;;;;;24.95;48.38;102217.56;10545658;28;20459;-79
2021/08/13 15:36:53;;;;;;;7.28;3.80;;;;;;;25.22;45.75;102205.63;10545010;28;20406;-79
2021/08/13 15:41:53;;;;;;;13.13;4.35;;;;;;;24.91;47.09;102198.94;10544720;28;20079;-79
2021/08/13 15:46:53;;;;;;;7.90;4.03;;;;;;;24.78;48.77;102212.09;10526938;28;20079;-79
2021/08/13 15:51:54;;;;;;;18.52;4.10;;;;;;;24.09;48.66;102151.78;10545529;28;20036;-79
2021/08/13 15:56:55;;;;;;;2.70;2.40;;;;;;;24.41;47.16;102208.34;10544396;28;20114;-78
2021/08/13 16:01:55;;;;;;;20.88;3.80;;;;;;;24.17;48.92;102169.03;10543957;28;20032;-79
2021/08/13 16:06:56;;;;;;;5.43;3.03;;;;;;;24.50;47.86;102227.03;10544919;28;20036;-79
2021/08/13 16:11:56;;;;;;;11.20;3.83;;;;;;;24.51;48.65;102216.81;10508194;28;20527;-79
2021/08/13 16:16:57;;;;;;;20.00;6.07;;;;;;;24.41;47.29;102202.78;10543249;28;20098;-79
2021/08/13 16:21:58;;;;;;;5.03;2.72;;;;;;;24.03;48.69;102197.09;10525521;28;20123;-79
2021/08/13 16:26:58;;;;;;;10.63;4.55;;;;;;;23.71;49.26;102154.56;10524249;28;20112;-79
2021/08/13 16:31:59;;;;;;;7.88;2.80;;;;;;;23.93;46.77;102199.72;10525100;28;20425;-79
2021/08/13 16:36:59;;;;;;;9.18;4.00;;;;;;;23.49;47.96;102213.41;10542358;28;20093;-79
2021/08/13 16:41:59;;;;;;;20.02;4.30;;;;;;;23.46;49.04;102200.09;10524311;28;20028;-79
2021/08/13 16:47:00;;;;;;;14.13;4.07;;;;;;;23.34;47.66;102175.31;10542578;28;20032;-79
2021/08/13 16:52:00;;;;;;;21.38;6.03;;;;;;;23.15;47.11;102122.22;10524062;28;20476;-79
2021/08/13 16:57:01;;;;;;;6.78;3.28;;;;;;;23.18;48.53;102196.31;10541976;28;20067;-79
2021/08/13 17:02:01;;;;;;;9.25;4.20;;;;;;;23.01;46.44;102184.44;10541678;28;20040;-79
2021/08/13 17:07:02;;;;;;;8.25;3.08;;;;;;;23.02;46.18;102190.78;10541736;28;20036;-79
2021/08/13 17:12:02;;;;;;;7.93;3.65;;;;;;;22.75;48.03;102134.25;10541110;28;20372;-79
2021/08/13 17:17:03;;;;;;;12.07;4.95;;;;;;;22.84;47.56;102166.97;10541099;28;20048;-79
2021/08/13 17:22:03;;;;;;;17.55;4.43;;;;;;;22.97;47.70;102195.16;10541454;28;20111;-79
2021/08/13 17:27:04;;;;;;;5.18;2.95;;;;;;;22.50;48.21;102125.50;10540964;28;20032;-79
2021/08/13 17:32:04;;;;;;;14.38;4.53;;;;;;;22.92;48.27;102205.22;10541010;28;20043;-79
2021/08/13 17:37:05;;;;;;;11.32;3.70;;;;;;;22.72;49.41;102200.19;10522393;28;20028;-79
2021/08/13 17:42:05;;;;;;;9.48;3.15;;;;;;;22.57;49.02;102173.09;10533289;28;20059;-79
2021/08/13 17:47:06;;;;;;;17.13;5.28;;;;;;;22.34;50.04;102135.41;10512508;28;20048;-79
2021/08/13 17:52:07;;;;;;;5.88;3.03;;;;;;;22.72;49.90;102186.38;10530781;28;20051;-79
2021/08/13 17:57:07;;;;;;;12.32;5.40;;;;;;;22.27;51.88;102135.56;10530472;28;20036;-79
2021/08/13 18:02:08;;;;;;;17.10;5.30;;;;;;;22.47;51.79;102189.47;10511333;28;20049;-79
2021/08/13 18:07:09;;;;;;;14.13;5.38;;;;;;;22.51;52.90;102188.72;10510950;28;20425;-79
2021/08/13 18:12:09;;;;;;;11.35;5.20;;;;;;;22.09;53.51;102201.06;10528154;28;20131;-79
2021/08/13 18:17:10;;;;;;;6.10;4.13;;;;;;;22.11;54.73;102196.13;10527544;28;20044;-79
2021/08/13 18:22:10;;;;;;;25.20;7.38;;;;;;;22.05;54.63;102189.69;10527670;28;20476;-79
2021/08/13 18:27:10;;;;;;;14.05;4.90;;;;;;;21.89;56.24;102185.75;10529475;28;20028;-79
2021/08/13 18:32:11;;;;;;;13.93;4.88;;;;;;;21.99;54.44;102179.63;10529867;28;20430;-79
2021/08/13 18:37:11;;;;;;;7.85;5.03;;;;;;;21.85;55.27;102189.22;10529518;28;20032;-81
2021/08/13 18:42:13;;;;;;;8.15;4.05;;;;;;;21.72;54.76;102204.09;10513520;28;20424;-78
2021/08/13 18:47:13;;;;;;;11.43;5.38;;;;;;;21.50;56.98;102185.41;10535550;28;20046;-78
2021/08/13 18:52:14;;;;;;;12.85;4.43;;;;;;;21.41;55.75;102197.03;10444854;28;20055;-78
2021/08/13 18:57:14;;;;;;;17.58;5.32;;;;;;;21.26;56.46;102195.56;10541444;28;20024;-78
2021/08/13 19:02:15;;;;;;;17.75;4.78;;;;;;;21.25;54.95;102201.28;10541843;28;20122;-78
2021/08/13 19:07:16;;;;;;;12.82;3.95;;;;;;;21.06;55.56;102195.88;10541263;28;20114;-78
2021/08/13 19:12:20;;;;;;;14.95;5.05;;;;;;;20.90;55.80;102197.41;10540826;28;20040;-78
2021/08/13 19:17:21;;;;;;;17.85;5.38;;;;;;;20.70;56.47;102196.00;10542195;28;20310;-78
2021/08/13 19:22:21;;;;;;;19.85;5.05;;;;;;;20.55;57.00;102200.03;10541838;28;20040;-77
2021/08/13 19:27:22;;;;;;;6.25;4.03;;;;;;;20.42;58.16;102194.63;10543545;28;20145;-77
2021/08/13 19:32:22;;;;;;;8.65;4.60;;;;;;;20.32;58.46;102199.84;10542592;28;20119;-78
2021/08/13 19:37:25;;;;;;;26.17;6.80;;;;;;;20.24;58.83;102208.44;10541049;28;20093;-79
2021/08/13 19:42:25;;;;;;;7.93;4.18;;;;;;;20.26;58.51;102211.78;10539988;28;20047;-78
2021/08/13 19:47:26;;;;;;;10.00;3.90;;;;;;;20.16;58.86;102221.41;10540425;28;20071;-77
2021/08/13 19:52:27;;;;;;;18.92;5.63;;;;;;;20.09;58.50;102206.91;10540175;28;20043;-78
2021/08/13 19:57:27;;;;;;;13.50;4.45;;;;;;;20.07;58.77;102211.81;10520276;28;20100;-77
2021/08/13 20:02:28;;;;;;;5.57;3.75;;;;;;;19.92;59.01;102194.84;10521941;28;20044;-78
2021/08/13 20:07:28;;;;;;;14.77;5.72;;;;;;;20.06;58.73;102212.03;10539482;28;20467;-79
2021/08/13 20:12:29;;;;;;;16.85;4.72;;;;;;;19.58;58.26;102147.59;10538762;28;20460;-78
2021/08/13 20:17:29;;;;;;;7.47;4.50;;;;;;;19.81;58.67;102192.84;10539164;28;20059;-78
2021/08/13 20:22:29;;;;;;;18.25;6.95;;;;;;;19.79;59.48;102208.72;10538307;28;20484;-78
2021/08/13 20:27:30;;;;;;;20.60;4.88;;;;;;;19.83;59.36;102201.72;10537906;28;20526;-79
2021/08/13 20:32:30;;;;;;;14.82;4.68;;;;;;;19.73;60.67;102174.75;10537624;28;20515;-78
2021/08/13 20:37:31;;;;;;;25.50;5.22;;;;;;;19.72;60.36;102176.66;10537845;28;20125;-78
2021/08/13 20:42:31;;;;;;;17.33;4.43;;;;;;;19.90;59.90;102178.56;10516516;28;20020;-78
2021/08/13 20:47:32;;;;;;;20.58;4.78;;;;;;;19.87;60.68;102187.25;10533093;28;20080;-78
2021/08/13 20:52:32;;;;;;;24.38;5.57;;;;;;;19.62;60.91;102129.59;10533289;28;20032;-78
2021/08/13 20:57:33;;;;;;;5.63;4.43;;;;;;;20.00;61.25;102179.94;10532505;28;20039;-78
2021/08/13 21:02:33;;;;;;;14.05;4.65;;;;;;;20.05;60.64;102191.94;10532396;28;20044;-78
2021/08/13 21:07:34;;;;;;;15.57;4.60;;;;;;;19.86;60.93;102190.25;10513942;28;20089;-78
2021/08/13 21:12:35;;;;;;;17.52;4.88;;;;;;;19.83;60.88;102183.31;10512288;28;20355;-78
2021/08/13 21:17:35;;;;;;;15.57;5.68;;;;;;;19.71;61.21;102174.13;10513250;28;20052;-78
2021/08/13 21:22:36;;;;;;;15.88;5.35;;;;;;;19.65;61.33;102169.53;10513097;28;20043;-79
2021/08/13 21:27:37;;;;;;;30.35;6.60;;;;;;;19.66;62.33;102191.31;10531521;28;20044;-78
2021/08/13 21:32:37;;;;;;;20.30;6.63;;;;;;;19.52;61.83;102163.06;10512777;28;20108;-78
2021/08/13 21:37:37;;;;;;;16.63;6.63;;;;;;;19.29;62.77;102122.50;10530721;28;20040;-78
2021/08/13 21:42:38;;;;;;;18.75;6.22;;;;;;;19.47;63.49;102176.66;10495241;28;20028;-78
2021/08/13 21:47:38;;;;;;;16.98;4.65;;;;;;;19.45;63.38;102175.19;10512277;28;20078;-78
2021/08/13 21:52:39;;;;;;;12.88;6.10;;;;;;;19.49;63.47;102176.41;10531068;28;20032;-77
2021/08/13 21:57:39;;;;;;;9.82;4.50;;;;;;;19.56;63.13;102168.97;10513004;28;20039;-77
2021/08/13 22:02:40;;;;;;;25.38;7.00;;;;;;;19.22;62.93;102105.25;10533207;28;20043;-78
2021/08/13 22:07:40;;;;;;;22.83;6.80;;;;;;;19.61;63.49;102165.53;10529953;28;20043;-78
2021/08/13 22:12:41;;;;;;;31.77;6.75;;;;;;;19.75;62.92;102167.13;10529154;28;20356;-78
2021/08/13 22:17:41;;;;;;;12.50;5.20;;;;;;;19.82;62.47;102161.56;10494389;28;20390;-79
2021/08/13 22:22:42;;;;;;;27.10;6.43;;;;;;;19.83;62.30;102164.06;10494452;28;20052;-79
2021/08/13 22:27:43;;;;;;;14.95;6.35;;;;;;;19.85;62.03;102174.84;10511147;28;20185;-80
2021/08/13 22:32:44;;;;;;;18.27;6.10;;;;;;;19.73;62.52;102178.31;10529888;28;20500;-79
2021/08/13 22:37:44;;;;;;;18.20;5.13;;;;;;;19.86;61.96;102195.75;10530040;28;20450;-79
2021/08/13 22:42:45;;;;;;;18.60;5.63;;;;;;;19.58;62.20;102155.81;10510499;28;20198;-79
2021/08/13 22:47:45;;;;;;;19.55;5.05;;;;;;;19.78;62.16;102161.13;10510866;28;20119;-79
2021/08/13 22:52:46;;;;;;;13.32;5.30;;;;;;;19.71;62.23;102160.38;10510100;28;20119;-79
2021/08/13 22:57:46;;;;;;;9.43;5.53;;;;;;;19.66;62.08;102141.84;10510999;28;20135;-79